createdAt,value
2022-11-22T00:00:51.756Z,7.40
2022-11-22T00:03:18.589Z,7.40
2022-11-22T00:05:45.289Z,7.40
2022-11-22T00:08:12.075Z,7.40
2022-11-22T00:10:38.997Z,7.40
2022-11-22T00:13:05.737Z,7.40
2022-11-22T00:15:32.502Z,7.30
2022-11-22T00:17:59.354Z,7.40
2022-11-22T00:20:26.471Z,7.40
2022-11-22T00:22:53.255Z,7.30
2022-11-22T00:25:20.024Z,7.40
2022-11-22T00:27:46.780Z,7.40
2022-11-22T00:30:15.741Z,7.40
2022-11-22T00:32:42.811Z,7.40
2022-11-22T00:35:11.262Z,7.40
2022-11-22T00:37:38.014Z,7.50
2022-11-22T00:40:07.900Z,7.50
2022-11-22T00:42:34.540Z,7.50
2022-11-22T00:45:03.572Z,7.50
2022-11-22T00:47:32.702Z,7.40
2022-11-22T00:49:59.375Z,7.40
2022-11-22T00:52:28.205Z,7.40
2022-11-22T00:54:55.346Z,7.40
2022-11-22T00:57:24.542Z,7.40
2022-11-22T00:59:53.659Z,7.30
2022-11-22T01:02:22.854Z,7.40
2022-11-22T01:04:51.713Z,7.40
2022-11-22T01:07:18.466Z,7.30
2022-11-22T01:09:47.752Z,7.40
2022-11-22T01:12:14.387Z,7.40
2022-11-22T01:14:41.122Z,7.40
2022-11-22T01:17:10.099Z,7.40
2022-11-22T01:19:36.886Z,7.40
2022-11-22T01:22:05.673Z,7.40
2022-11-22T01:24:32.314Z,7.40
2022-11-22T01:26:58.983Z,7.40
2022-11-22T01:29:32.875Z,7.40
2022-11-22T01:31:59.657Z,7.30
2022-11-22T01:34:28.627Z,7.30
2022-11-22T01:36:55.297Z,7.30
2022-11-22T01:39:24.602Z,7.40
2022-11-22T01:41:51.280Z,7.40
2022-11-22T01:44:27.512Z,7.40
2022-11-22T01:46:56.407Z,7.40
2022-11-22T01:49:35.807Z,7.50
2022-11-22T01:52:06.946Z,7.40
2022-11-22T01:54:42.793Z,7.50
2022-11-22T01:57:15.175Z,7.40
2022-11-22T01:59:49.785Z,7.40
2022-11-22T02:02:16.496Z,7.40
2022-11-22T02:04:46.670Z,7.40
2022-11-22T02:07:45.993Z,7.40
2022-11-22T02:10:14.418Z,7.40
2022-11-22T02:12:43.933Z,7.30
2022-11-22T02:15:11.757Z,7.40
2022-11-22T02:17:40.925Z,7.40
2022-11-22T02:20:08.506Z,7.40
2022-11-22T02:22:43.911Z,7.40
2022-11-22T02:25:36.446Z,7.40
2022-11-22T02:28:08.679Z,7.40
2022-11-22T02:30:41.859Z,7.40
2022-11-22T02:33:11.046Z,7.30
2022-11-22T02:35:37.745Z,7.30
2022-11-22T02:38:18.044Z,7.20
2022-11-22T02:40:53.292Z,7.20
2022-11-22T02:43:42.035Z,7.30
2022-11-22T02:46:20.582Z,7.20
2022-11-22T02:48:48.001Z,7.20
2022-11-22T02:51:17.130Z,7.20
2022-11-22T02:53:44.325Z,7.20
2022-11-22T02:56:13.415Z,7.10
2022-11-22T02:58:40.077Z,7.10
2022-11-22T03:01:09.056Z,7.10
2022-11-22T03:03:35.926Z,7.10
2022-11-22T03:06:02.657Z,7.10
2022-11-22T03:08:31.861Z,7.10
2022-11-22T03:11:01.192Z,7.10
2022-11-22T03:13:30.102Z,7.00
2022-11-22T03:15:56.727Z,7.10
2022-11-22T03:18:23.483Z,7.10
2022-11-22T03:20:52.474Z,7.00
2022-11-22T03:23:23.880Z,7.20
2022-11-22T03:25:50.574Z,7.00
2022-11-22T03:28:17.251Z,7.00
2022-11-22T03:30:46.261Z,6.90
2022-11-22T03:33:15.478Z,6.90
2022-11-22T03:35:46.990Z,7.00
2022-11-22T03:38:13.646Z,7.00
2022-11-22T03:40:45.516Z,7.00
2022-11-22T03:43:12.232Z,7.00
2022-11-22T03:45:45.728Z,6.90
2022-11-22T03:48:15.048Z,6.90
2022-11-22T03:50:47.394Z,6.90
2022-11-22T03:53:16.812Z,6.80
2022-11-22T03:55:45.658Z,6.90
2022-11-22T03:58:12.275Z,6.70
2022-11-22T04:00:38.951Z,6.70
2022-11-22T04:03:07.819Z,6.80
2022-11-22T04:05:34.535Z,6.80
2022-11-22T04:08:03.753Z,6.80
2022-11-22T04:10:30.429Z,6.80
2022-11-22T04:12:59.596Z,6.80
2022-11-22T04:15:26.952Z,6.80
2022-11-22T04:17:53.597Z,6.80
2022-11-22T04:20:47.246Z,6.80
2022-11-22T04:23:15.214Z,6.70
2022-11-22T04:25:44.152Z,6.80
2022-11-22T04:28:11.595Z,6.70
2022-11-22T04:31:00.343Z,6.70
2022-11-22T04:33:27.422Z,6.60
2022-11-22T04:35:56.303Z,6.60
2022-11-22T04:38:23.648Z,6.50
2022-11-22T04:40:52.729Z,6.50
2022-11-22T04:43:41.526Z,6.50
2022-11-22T04:46:08.599Z,6.50
2022-11-22T04:48:35.897Z,6.50
2022-11-22T04:51:22.098Z,6.50
2022-11-22T04:53:48.781Z,6.40
2022-11-22T04:56:15.590Z,6.40
2022-11-22T04:58:44.474Z,6.40
2022-11-22T05:01:16.065Z,6.40
2022-11-22T05:03:42.763Z,6.40
2022-11-22T05:06:16.108Z,6.40
2022-11-22T05:08:42.755Z,6.40
2022-11-22T05:11:11.848Z,6.30
2022-11-22T05:13:40.514Z,6.30
2022-11-22T05:16:10.230Z,6.30
2022-11-22T05:18:41.512Z,6.30
2022-11-22T05:21:10.815Z,6.30
2022-11-22T05:23:55.756Z,6.20
2022-11-22T05:26:25.201Z,6.20
2022-11-22T05:28:54.565Z,6.30
2022-11-22T05:31:23.625Z,6.30
2022-11-22T05:33:56.703Z,6.30
2022-11-22T05:36:24.375Z,6.30
2022-11-22T05:38:53.707Z,6.30
2022-11-22T05:41:20.513Z,6.20
2022-11-22T05:43:52.370Z,6.20
2022-11-22T05:46:24.697Z,6.20
2022-11-22T05:48:52.973Z,6.10
2022-11-22T05:51:22.293Z,6.10
2022-11-22T05:53:51.296Z,6.10
2022-11-22T05:56:20.820Z,6.10
2022-11-22T05:58:47.692Z,6.10
2022-11-22T06:01:22.038Z,6.10
2022-11-22T06:03:49.808Z,6.10
2022-11-22T06:06:16.945Z,6.10
2022-11-22T06:08:48.069Z,6.20
2022-11-22T06:11:25.242Z,6.20
2022-11-22T06:13:58.350Z,6.20
2022-11-22T06:16:26.628Z,6.20
2022-11-22T06:18:54.055Z,6.20
2022-11-22T06:21:24.864Z,6.20
2022-11-22T06:23:55.064Z,6.10
2022-11-22T06:26:22.784Z,6.20
2022-11-22T06:28:50.034Z,6.20
2022-11-22T06:31:22.856Z,6.10
2022-11-22T06:33:50.337Z,6.20
2022-11-22T06:36:19.563Z,6.20
2022-11-22T06:38:46.841Z,6.20
2022-11-22T06:41:37.029Z,6.20
2022-11-22T06:44:10.996Z,6.20
2022-11-22T06:46:38.082Z,6.30
2022-11-22T06:49:04.845Z,6.30
2022-11-22T06:51:32.405Z,6.30
2022-11-22T06:53:59.301Z,6.40
2022-11-22T06:56:25.967Z,6.30
2022-11-22T06:58:53.363Z,6.40
2022-11-22T07:01:28.268Z,6.40
2022-11-22T07:03:58.159Z,6.40
2022-11-22T07:06:31.610Z,6.30
2022-11-22T07:09:02.194Z,6.30
2022-11-22T07:11:30.932Z,6.30
2022-11-22T07:14:07.099Z,6.40
2022-11-22T07:16:36.689Z,6.30
2022-11-22T07:19:03.791Z,6.30
2022-11-22T07:21:35.423Z,6.30
2022-11-22T07:24:03.761Z,6.40
2022-11-22T07:26:30.430Z,6.50
2022-11-22T07:28:59.394Z,6.50
2022-11-22T07:31:26.207Z,6.50
2022-11-22T07:33:52.919Z,6.50
2022-11-22T07:36:21.397Z,6.50
2022-11-22T07:38:49.143Z,6.60
2022-11-22T07:41:19.458Z,6.60
2022-11-22T07:43:48.917Z,6.60
2022-11-22T07:46:31.143Z,6.60
2022-11-22T07:49:01.922Z,6.50
2022-11-22T07:51:29.217Z,6.50
2022-11-22T07:53:58.254Z,6.90
2022-11-22T07:56:25.530Z,6.60
2022-11-22T07:58:52.301Z,6.50
2022-11-22T08:01:23.846Z,6.60
2022-11-22T08:03:53.038Z,6.60
2022-11-22T08:06:19.666Z,6.60
2022-11-22T08:08:46.319Z,6.70
2022-11-22T08:11:13.109Z,6.70
2022-11-22T08:13:40.396Z,6.80
2022-11-22T08:16:12.470Z,6.80
2022-11-22T08:18:41.920Z,6.80
2022-11-22T08:21:14.145Z,6.80
2022-11-22T08:23:41.707Z,6.80
2022-11-22T08:26:13.458Z,6.80
2022-11-22T08:28:41.618Z,6.90
2022-11-22T08:31:13.725Z,6.90
2022-11-22T08:33:40.954Z,6.90
2022-11-22T08:36:08.146Z,6.90
2022-11-22T08:38:34.996Z,7.00
2022-11-22T08:41:01.926Z,7.00
2022-11-22T08:43:28.612Z,7.10
2022-11-22T08:46:02.085Z,7.30
2022-11-22T08:48:37.536Z,7.30
2022-11-22T08:51:08.649Z,7.30
2022-11-22T08:53:37.912Z,7.30
2022-11-22T08:56:09.702Z,7.40
2022-11-22T08:58:37.135Z,7.40
2022-11-22T09:01:09.508Z,7.50
2022-11-22T09:03:38.522Z,7.50
2022-11-22T09:09:09.125Z,7.60
2022-11-22T09:11:43.571Z,7.60
2022-11-22T09:14:15.164Z,7.60
2022-11-22T09:16:41.806Z,7.70
2022-11-22T09:19:08.423Z,7.70
2022-11-22T09:21:35.202Z,7.70
2022-11-22T09:24:04.443Z,7.80
2022-11-22T09:26:31.176Z,7.90
2022-11-22T09:29:01.096Z,7.90
2022-11-22T09:31:34.161Z,8.00
2022-11-22T09:34:00.866Z,8.00
2022-11-22T09:36:27.600Z,8.10
2022-11-22T09:38:56.928Z,8.10
2022-11-22T09:41:39.328Z,8.20
2022-11-22T09:44:11.768Z,8.20
2022-11-22T09:47:05.775Z,8.30
2022-11-22T09:49:58.435Z,8.40
2022-11-22T09:52:32.330Z,8.40
2022-11-22T09:55:24.175Z,8.40
2022-11-22T09:58:11.504Z,8.50
2022-11-22T10:00:39.429Z,8.60
2022-11-22T10:03:16.575Z,8.70
2022-11-22T10:05:52.326Z,8.80
2022-11-22T10:08:45.963Z,8.80
2022-11-22T10:11:42.955Z,8.90
2022-11-22T10:14:34.597Z,8.90
2022-11-22T10:17:30.443Z,9.00
2022-11-22T10:20:05.934Z,9.10
2022-11-22T10:22:35.489Z,9.10
2022-11-22T10:25:12.931Z,9.20
2022-11-22T10:27:41.452Z,9.20
2022-11-22T10:30:16.909Z,9.30
2022-11-22T10:33:09.610Z,9.30
2022-11-22T10:35:55.129Z,9.40
2022-11-22T10:38:37.895Z,9.50
2022-11-22T10:41:27.018Z,9.70
2022-11-22T10:44:13.915Z,9.70
2022-11-22T10:46:56.724Z,9.70
2022-11-22T10:49:55.308Z,9.80
2022-11-22T10:52:27.379Z,9.80
2022-11-22T10:55:22.241Z,9.80
2022-11-22T10:58:14.869Z,9.90
2022-11-22T11:00:49.281Z,9.90
2022-11-22T11:03:25.136Z,9.90
2022-11-22T11:06:22.629Z,9.90
2022-11-22T11:09:54.994Z,9.90
2022-11-22T11:11:52.082Z,10.10
2022-11-22T11:14:18.682Z,10.10
2022-11-22T11:16:46.304Z,10.10
2022-11-22T11:19:26.790Z,10.10
2022-11-22T11:22:00.538Z,10.20
2022-11-22T11:24:32.089Z,10.10
2022-11-22T11:27:00.349Z,10.20
2022-11-22T11:29:38.170Z,10.10
2022-11-22T11:32:10.837Z,10.10
2022-11-22T11:34:40.610Z,10.10
2022-11-22T11:37:18.557Z,10.10
2022-11-22T11:39:47.365Z,10.20
2022-11-22T11:42:32.326Z,10.20
2022-11-22T11:45:25.024Z,10.20
2022-11-22T11:47:51.830Z,10.20
2022-11-22T11:50:27.748Z,10.30
2022-11-22T11:52:57.011Z,10.30
2022-11-22T11:55:24.995Z,10.30
2022-11-22T11:57:53.317Z,10.30
2022-11-22T12:00:28.212Z,10.40
2022-11-22T12:03:02.809Z,10.40
2022-11-22T12:05:32.156Z,10.30
2022-11-22T12:08:00.129Z,10.40
2022-11-22T12:10:30.350Z,10.30
2022-11-22T12:13:22.282Z,10.30
2022-11-22T12:15:57.701Z,10.30
2022-11-22T12:18:39.425Z,10.30
2022-11-22T12:21:22.768Z,10.30
2022-11-22T12:24:48.392Z,10.30
2022-11-22T12:27:17.152Z,10.40
2022-11-22T12:29:49.583Z,10.50
2022-11-22T12:32:36.870Z,10.50
2022-11-22T12:35:09.195Z,10.50
2022-11-22T12:37:51.803Z,10.50
2022-11-22T12:40:26.959Z,10.40
2022-11-22T12:43:02.577Z,10.30
2022-11-22T12:45:42.281Z,10.30
2022-11-22T12:48:18.366Z,10.30
2022-11-22T12:50:53.729Z,10.30
2022-11-22T12:53:29.056Z,10.40
2022-11-22T12:56:04.248Z,10.40
2022-11-22T12:58:42.820Z,10.40
2022-11-22T13:01:15.540Z,10.50
2022-11-22T13:03:54.299Z,10.50
2022-11-22T13:06:28.347Z,10.50
2022-11-22T13:09:05.026Z,10.50
2022-11-22T13:11:40.271Z,10.40
2022-11-22T13:14:20.845Z,10.40
2022-11-22T13:16:50.815Z,10.30
2022-11-22T13:19:21.425Z,10.30
2022-11-22T13:22:03.000Z,10.30
2022-11-22T13:24:41.173Z,10.30
2022-11-22T13:27:07.759Z,10.30
2022-11-22T13:29:36.315Z,10.30
2022-11-22T13:32:04.858Z,10.30
2022-11-22T13:34:37.008Z,10.30
2022-11-22T13:37:17.226Z,10.30
2022-11-22T13:39:47.353Z,10.30
2022-11-22T13:42:22.251Z,10.30
2022-11-22T13:45:22.465Z,12.00
2022-11-22T13:47:49.641Z,10.20
2022-11-22T13:50:44.511Z,10.20
2022-11-22T13:53:20.116Z,10.20
2022-11-22T13:55:49.268Z,10.10
2022-11-22T13:58:38.653Z,10.10
2022-11-22T14:01:30.846Z,10.10
2022-11-22T14:04:15.889Z,10.10
2022-11-22T14:07:02.909Z,10.10
2022-11-22T14:09:45.852Z,10.10
2022-11-22T14:12:39.892Z,10.10
2022-11-22T14:15:13.189Z,10.10
2022-11-22T14:17:50.734Z,10.00
2022-11-22T14:20:20.203Z,9.90
2022-11-22T14:22:55.903Z,9.90
2022-11-22T14:25:46.413Z,9.90
2022-11-22T14:28:21.864Z,9.80
2022-11-22T14:30:55.136Z,9.90
2022-11-22T14:33:24.433Z,9.90
2022-11-22T14:36:06.419Z,9.90
2022-11-22T14:38:35.573Z,9.90
2022-11-22T14:41:27.143Z,9.90
2022-11-22T14:44:08.204Z,9.90
2022-11-22T14:46:59.327Z,9.90
2022-11-22T14:49:34.488Z,9.90
2022-11-22T14:52:02.347Z,9.80
2022-11-22T14:54:40.397Z,9.70
2022-11-22T14:57:09.505Z,9.70
2022-11-22T15:00:09.069Z,9.60
2022-11-22T15:03:00.410Z,9.60
2022-11-22T15:09:10.444Z,9.50
2022-11-22T15:09:13.693Z,9.60
2022-11-22T15:12:16.619Z,9.50
2022-11-22T15:14:56.412Z,9.50
2022-11-22T15:58:05.682Z,8.90
2022-11-22T16:00:32.757Z,8.80
2022-11-22T16:03:06.711Z,8.80
2022-11-22T16:06:08.849Z,8.70
2022-11-22T16:08:26.430Z,8.60
2022-11-22T16:10:58.650Z,8.60
2022-11-22T16:13:28.034Z,8.50
2022-11-22T16:16:12.937Z,8.60
2022-11-22T16:18:40.646Z,8.60
2022-11-22T16:21:11.043Z,8.60
2022-11-22T16:23:39.181Z,8.60
2022-11-22T16:26:21.821Z,8.50
2022-11-22T16:28:54.414Z,8.50
2022-11-22T16:31:23.886Z,8.50
2022-11-22T16:33:52.197Z,8.50
2022-11-22T16:36:22.788Z,8.40
2022-11-22T16:38:51.777Z,8.40
2022-11-22T16:41:22.116Z,8.40
2022-11-22T16:43:53.854Z,8.40
2022-11-22T16:46:21.488Z,8.40
2022-11-22T16:48:48.324Z,8.40
2022-11-22T16:51:28.338Z,8.40
2022-11-22T16:53:58.973Z,8.40
2022-11-22T16:56:30.017Z,8.30
2022-11-22T16:58:57.772Z,8.30
2022-11-22T17:01:26.883Z,8.30
2022-11-22T17:03:57.383Z,8.20
2022-11-22T17:06:26.482Z,8.20
2022-11-22T17:08:57.671Z,8.30
2022-11-22T17:11:34.520Z,8.20
2022-11-22T17:14:01.194Z,8.20
2022-11-22T17:16:27.906Z,8.20
2022-11-22T17:18:54.601Z,8.10
2022-11-22T17:21:25.547Z,8.20
2022-11-22T17:23:57.887Z,8.10
2022-11-22T17:26:27.290Z,8.30
2022-11-22T17:28:58.636Z,8.30
2022-11-22T17:31:27.497Z,8.30
2022-11-22T17:33:58.961Z,8.20
2022-11-22T17:36:27.795Z,8.20
2022-11-22T17:38:54.499Z,8.10
2022-11-22T17:41:23.562Z,8.10
2022-11-22T17:43:51.579Z,8.10
2022-11-22T17:46:19.466Z,8.00
2022-11-22T17:49:00.497Z,8.00
2022-11-22T17:51:28.572Z,8.00
2022-11-22T17:53:58.557Z,8.00
2022-11-22T17:56:29.927Z,8.00
2022-11-22T17:58:59.121Z,8.00
2022-11-22T18:01:26.414Z,8.00
2022-11-22T18:03:55.431Z,8.00
2022-11-22T18:06:26.587Z,7.90
2022-11-22T18:08:55.950Z,8.00
2022-11-22T18:11:24.750Z,10.30
2022-11-22T18:13:53.644Z,7.90
2022-11-22T18:16:20.991Z,7.80
2022-11-22T18:19:03.066Z,7.80
2022-11-22T18:21:32.135Z,7.70
2022-11-22T18:24:01.922Z,7.70
2022-11-22T18:26:39.311Z,7.60
2022-11-22T18:34:41.663Z,7.60
2022-11-22T18:37:08.380Z,7.60
2022-11-22T18:39:38.826Z,7.60
2022-11-22T18:42:08.635Z,7.60
2022-11-22T18:44:35.356Z,7.60
2022-11-22T18:47:04.780Z,9.50
2022-11-22T18:49:34.190Z,7.40
2022-11-22T18:52:03.218Z,7.30
2022-11-22T18:54:30.397Z,7.30
2022-11-22T18:56:59.948Z,9.10
2022-11-22T18:59:27.118Z,9.50
2022-11-22T19:01:56.037Z,8.30
2022-11-22T19:04:22.766Z,7.90
2022-11-22T19:06:49.499Z,7.60
2022-11-22T19:09:16.239Z,7.50
2022-11-22T19:11:45.152Z,7.40
2022-11-22T19:14:14.018Z,7.40
2022-11-22T19:16:40.688Z,7.40
2022-11-22T19:19:10.539Z,7.30
2022-11-22T19:21:37.147Z,7.30
2022-11-22T19:24:04.166Z,7.30
2022-11-22T19:26:30.927Z,7.20
2022-11-22T19:29:00.305Z,7.20
2022-11-22T19:31:29.565Z,7.10
2022-11-22T19:33:57.098Z,7.10
2022-11-22T19:36:32.137Z,7.00
2022-11-22T19:39:02.606Z,7.10
2022-11-22T19:41:29.321Z,7.10
2022-11-22T19:43:58.610Z,7.10
2022-11-22T19:46:25.905Z,7.10
2022-11-22T19:48:58.718Z,7.10
2022-11-22T19:51:29.415Z,7.10
2022-11-22T19:54:01.902Z,7.00
2022-11-22T19:56:33.308Z,7.10
2022-11-22T19:59:01.928Z,7.00
2022-11-22T20:01:33.457Z,7.00
2022-11-22T20:04:05.562Z,6.90
2022-11-22T20:06:35.783Z,6.90
2022-11-22T20:09:05.753Z,6.80
2022-11-22T20:11:34.950Z,6.80
2022-11-22T20:14:04.008Z,6.70
2022-11-22T20:16:33.770Z,6.70
2022-11-22T20:19:03.730Z,6.70
2022-11-22T20:21:34.582Z,6.70
2022-11-22T20:24:02.308Z,6.70
2022-11-22T20:26:30.425Z,6.70
2022-11-22T20:29:08.092Z,6.60
2022-11-22T20:31:37.023Z,6.70
2022-11-22T20:34:04.179Z,6.70
2022-11-22T20:36:33.193Z,7.00
2022-11-22T20:39:08.401Z,6.60
2022-11-22T20:41:36.963Z,6.50
2022-11-22T20:44:03.894Z,9.00
2022-11-22T20:46:36.175Z,6.40
2022-11-22T20:49:02.855Z,6.40
2022-11-22T20:51:32.362Z,6.30
2022-11-22T20:53:59.925Z,6.30
2022-11-22T20:56:28.809Z,6.30
2022-11-22T20:58:58.067Z,6.30
2022-11-22T21:01:27.338Z,6.30
2022-11-22T21:03:57.519Z,6.30
2022-11-22T21:06:32.707Z,6.30
2022-11-22T21:08:59.424Z,6.40
2022-11-22T21:11:32.050Z,6.40
2022-11-22T21:14:02.246Z,6.40
2022-11-22T21:16:32.446Z,6.30
2022-11-22T21:19:01.498Z,6.20
2022-11-22T21:21:32.030Z,6.20
2022-11-22T21:24:00.878Z,6.10
2022-11-22T21:26:28.461Z,6.10
2022-11-22T21:28:57.609Z,6.00
2022-11-22T21:31:24.503Z,6.00
2022-11-22T21:33:51.960Z,6.00
2022-11-22T21:36:19.485Z,6.00
2022-11-22T21:38:46.455Z,6.00
2022-11-22T21:44:04.812Z,6.00
2022-11-22T21:46:31.557Z,6.00
2022-11-22T21:48:58.340Z,6.00
2022-11-22T21:51:26.192Z,5.90
2022-11-22T21:53:57.578Z,5.90
2022-11-22T21:56:29.353Z,5.90
2022-11-22T21:58:59.274Z,5.90
2022-11-22T22:01:26.578Z,5.80
2022-11-22T22:03:54.021Z,5.80
2022-11-22T22:06:20.989Z,5.70
2022-11-22T22:08:47.705Z,5.70
2022-11-22T22:11:14.917Z,5.60
2022-11-22T22:13:41.843Z,5.60
2022-11-22T22:16:15.430Z,5.60
2022-11-22T22:18:47.629Z,5.70
2022-11-22T22:21:14.816Z,5.70
2022-11-22T22:23:45.003Z,5.70
2022-11-22T22:26:14.230Z,5.70
2022-11-22T22:28:41.683Z,5.70
2022-11-22T22:31:24.739Z,5.60
2022-11-22T22:33:54.125Z,5.60
2022-11-22T22:36:21.739Z,5.50
2022-11-22T22:38:51.041Z,5.50
2022-11-22T22:41:18.661Z,5.50
2022-11-22T22:43:51.713Z,5.40
2022-11-22T22:46:20.007Z,5.40
2022-11-22T22:48:48.275Z,5.30
2022-11-22T22:51:21.517Z,5.30
2022-11-22T22:53:50.496Z,5.20
2022-11-22T22:56:19.234Z,5.20
2022-11-22T22:58:46.235Z,5.30
2022-11-22T23:01:15.333Z,5.30
2022-11-22T23:03:42.211Z,5.30
2022-11-22T23:06:11.492Z,5.30
2022-11-22T23:08:39.524Z,5.30
2022-11-22T23:11:08.561Z,5.20
2022-11-22T23:13:40.424Z,5.20
2022-11-22T23:16:09.713Z,5.20
2022-11-22T23:18:42.190Z,5.10
2022-11-22T23:21:11.603Z,5.10
2022-11-22T23:23:38.712Z,5.00
2022-11-22T23:26:09.905Z,5.00
2022-11-22T23:28:36.963Z,4.90
2022-11-22T23:31:08.639Z,4.90
2022-11-22T23:33:38.057Z,4.90
2022-11-22T23:36:15.999Z,4.90
2022-11-22T23:38:45.669Z,4.90
2022-11-22T23:41:18.155Z,4.90
2022-11-22T23:43:47.094Z,4.90
2022-11-22T23:46:18.150Z,4.90
2022-11-22T23:48:53.686Z,4.90
2022-11-22T23:51:20.682Z,4.90
2022-11-22T23:53:53.514Z,4.90
2022-11-22T23:56:21.955Z,4.80
2022-11-22T23:58:49.680Z,4.80
